Time;durP1;ratioP1;P1;durP2;ratioP2;P2;SDS_P1;SDS_P2;PMS_P1;PMS_P2;Temp;Humidity;BMP_temperature;BMP_pressure;BME280_temperature;BME280_humidity;BME280_pressure;Samples;Min_cycle;Max_cycle;Signal;HPM_P1;HPM_P2
2022/12/04 00:01:25;;;;;;;58.85;26.85;;;;;;;0.38;83.35;101735.84;5143450;27;20050;-69
2022/12/04 00:03:55;;;;;;;57.42;26.50;;;;;;;0.38;83.18;101728.06;5134636;27;20072;-69
2022/12/04 00:06:24;;;;;;;57.78;25.15;;;;;;;0.37;83.14;101723.72;5140896;27;20522;-69
2022/12/04 00:08:53;;;;;;;59.03;27.90;;;;;;;0.39;83.08;101727.25;5142285;27;20046;-69
2022/12/04 00:11:25;;;;;;;63.53;27.77;;;;;;;0.33;83.21;101721.88;5141819;27;20130;-69
2022/12/04 00:13:54;;;;;;;56.63;27.30;;;;;;;0.34;83.31;101722.75;5140371;27;20039;-69
2022/12/04 00:16:25;;;;;;;61.28;26.13;;;;;;;0.37;83.19;101728.91;5146052;27;20040;-69
2022/12/04 00:18:53;;;;;;;57.88;26.67;;;;;;;0.39;82.99;101721.16;5147854;27;20046;-69
2022/12/04 00:21:23;;;;;;;58.97;28.17;;;;;;;0.39;82.92;101722.06;5144452;27;20068;-69
2022/12/04 00:23:52;;;;;;;57.50;28.02;;;;;;;0.35;83.06;101724.53;5146756;27;20044;-69
2022/12/04 00:26:24;;;;;;;59.60;27.20;;;;;;;0.36;83.20;101723.66;5133369;27;20039;-69
2022/12/04 00:28:53;;;;;;;56.00;26.52;;;;;;;0.35;83.03;101727.97;5150396;27;20043;-69
2022/12/04 00:31:27;;;;;;;55.95;27.17;;;;;;;0.33;83.32;101721.00;5151574;27;20062;-67
2022/12/04 00:33:54;;;;;;;61.50;27.53;;;;;;;0.34;83.31;101723.63;5144981;27;20145;-67
2022/12/04 00:36:25;;;;;;;58.55;27.10;;;;;;;0.35;83.01;101722.78;5134400;27;20815;-67
2022/12/04 00:38:53;;;;;;;61.28;28.65;;;;;;;0.35;83.11;101717.59;5144157;27;20035;-67
2022/12/04 00:41:24;;;;;;;58.20;27.60;;;;;;;0.37;82.94;101731.50;5145908;27;20127;-68
2022/12/04 00:43:52;;;;;;;56.70;28.02;;;;;;;0.30;83.21;101717.50;5134156;27;20047;-70
2022/12/04 00:46:20;;;;;;;59.38;27.50;;;;;;;0.32;83.22;101720.13;5141512;27;20930;-70
2022/12/04 00:48:47;;;;;;;59.95;28.27;;;;;;;0.30;83.50;101714.91;5139456;27;20059;-70
2022/12/04 00:51:24;;;;;;;58.92;27.27;;;;;;;0.33;83.50;101721.00;5137536;27;20048;-71
2022/12/04 00:53:51;;;;;;;57.58;26.42;;;;;;;0.32;83.45;101714.94;5135139;27;20043;-70
2022/12/04 00:56:24;;;;;;;57.00;26.63;;;;;;;0.37;82.96;101718.53;5147376;27;20074;-70
2022/12/04 00:58:55;;;;;;;59.85;27.52;;;;;;;0.37;83.20;101717.63;5142062;27;20043;-70
2022/12/04 01:01:25;;;;;;;59.55;28.40;;;;;;;0.34;83.23;101712.38;5151569;27;20088;-70
2022/12/04 01:03:54;;;;;;;58.63;27.30;;;;;;;0.34;83.26;101714.97;5140549;27;20035;-70
2022/12/04 01:06:32;;;;;;;57.70;27.70;;;;;;;0.33;83.41;101714.09;5143278;27;20475;-71
2022/12/04 01:09:02;;;;;;;60.47;29.35;;;;;;;0.35;83.41;101711.56;5135651;27;20047;-71
2022/12/04 01:11:30;;;;;;;61.60;29.55;;;;;;;0.34;83.55;101720.19;5145766;27;20047;-70
2022/12/04 01:13:59;;;;;;;61.97;28.98;;;;;;;0.37;83.46;101715.03;5151978;27;20047;-70
2022/12/04 01:16:35;;;;;;;63.40;28.35;;;;;;;0.38;83.36;101720.28;5139215;27;20035;-71
2022/12/04 01:19:06;;;;;;;59.83;27.88;;;;;;;0.39;83.05;101723.75;5142122;27;20044;-68
2022/12/04 01:21:35;;;;;;;61.97;28.73;;;;;;;0.39;83.17;101727.25;5143150;27;20116;-71
2022/12/04 01:24:04;;;;;;;60.47;28.60;;;;;;;0.39;83.14;101729.84;5137603;27;20031;-71
2022/12/04 01:26:31;;;;;;;57.75;27.42;;;;;;;0.36;83.26;101727.16;5135460;27;20505;-69
2022/12/04 01:29:00;;;;;;;60.25;28.98;;;;;;;0.37;83.20;101723.72;5143053;27;20043;-71
2022/12/04 01:31:27;;;;;;;62.20;28.75;;;;;;;0.37;83.36;101730.59;5152159;27;20047;-70
2022/12/04 01:33:54;;;;;;;63.45;30.00;;;;;;;0.36;83.34;101734.94;5147294;27;20043;-69
2022/12/04 01:36:27;;;;;;;60.60;28.83;;;;;;;0.36;83.49;101721.06;5146289;27;20100;-69
2022/12/04 01:38:55;;;;;;;59.90;28.85;;;;;;;0.38;83.41;101733.25;5138548;27;20039;-69
2022/12/04 01:41:30;;;;;;;65.78;28.52;;;;;;;0.35;83.65;101724.53;5130987;27;20529;-69
2022/12/04 01:44:24;;;;;;;64.03;29.17;;;;;;;0.40;83.33;101718.63;5145168;27;20108;-69
2022/12/04 01:46:55;;;;;;;63.58;30.02;;;;;;;0.37;83.26;101709.84;5150223;27;20479;-69
2022/12/04 01:49:36;;;;;;;65.20;29.05;;;;;;;0.35;83.48;101708.97;5142864;27;20050;-69
2022/12/04 01:52:14;;;;;;;64.35;29.20;;;;;;;0.35;83.44;101712.41;5133454;27;20047;-69
2022/12/04 01:54:49;;;;;;;66.88;30.52;;;;;;;0.30;83.64;101707.13;5154987;27;20036;-68
2022/12/04 01:57:22;;;;;;;61.00;30.20;;;;;;;0.32;83.58;101703.69;5136544;27;20055;-68
2022/12/04 02:00:07;;;;;;;64.10;30.15;;;;;;;0.30;83.68;101701.94;5152201;27;20558;-68
2022/12/04 02:02:38;;;;;;;56.95;29.13;;;;;;;0.33;83.59;101700.25;5144365;27;20119;-68
2022/12/04 02:05:11;;;;;;;62.42;29.30;;;;;;;0.35;83.29;101702.03;5148166;27;20065;-68
2022/12/04 02:07:44;;;;;;;65.40;30.63;;;;;;;0.29;83.45;101707.94;5136152;27;20480;-68
2022/12/04 02:10:13;;;;;;;60.95;27.65;;;;;;;0.30;83.61;101706.25;5140544;27;20139;-68
2022/12/04 02:13:04;;;;;;;71.20;31.83;;;;;;;0.23;83.73;101706.91;5150202;27;20074;-69
2022/12/04 02:16:01;;;;;;;61.65;29.58;;;;;;;0.27;83.59;101707.03;5142166;27;20036;-68
2022/12/04 02:18:59;;;;;;;60.17;28.65;;;;;;;0.29;83.39;101705.34;5139680;27;20054;-68
2022/12/04 02:21:39;;;;;;;61.15;29.58;;;;;;;0.23;83.75;101709.50;5144845;27;20036;-68
2022/12/04 02:24:52;;;;;;;64.28;31.05;;;;;;;0.26;83.76;101709.59;5137650;27;20476;-68
2022/12/04 02:27:40;;;;;;;62.78;30.23;;;;;;;0.27;83.92;101707.03;5140047;27;20499;-68
2022/12/04 02:30:11;;;;;;;66.50;29.60;;;;;;;0.30;83.74;101703.66;5148784;27;20089;-69
2022/12/04 02:32:57;;;;;;;66.68;30.98;;;;;;;0.28;83.70;101698.41;5153220;27;20039;-70
2022/12/04 02:35:29;;;;;;;63.05;29.10;;;;;;;0.31;83.67;101695.00;5142953;27;20043;-71
2022/12/04 02:38:09;;;;;;;65.70;30.20;;;;;;;0.33;83.40;101698.53;5147591;27;20516;-71
2022/12/04 02:40:53;;;;;;;63.25;30.38;;;;;;;0.29;83.64;101700.16;5153094;27;20126;-71
2022/12/04 02:43:31;;;;;;;62.60;29.55;;;;;;;0.32;83.35;101691.56;5151636;27;20093;-71
2022/12/04 02:46:10;;;;;;;70.22;31.40;;;;;;;0.29;83.35;101699.31;5150904;27;20069;-71
2022/12/04 02:48:41;;;;;;;64.38;30.45;;;;;;;0.26;83.73;101689.69;5142984;27;20074;-71
2022/12/04 02:51:13;;;;;;;64.47;29.20;;;;;;;0.27;83.72;101686.28;5134443;27;20036;-71
2022/12/04 02:53:49;;;;;;;66.22;31.23;;;;;;;0.30;83.40;101688.97;5143956;27;20044;-71
2022/12/04 02:56:25;;;;;;;65.80;30.08;;;;;;;0.28;83.58;101698.41;5146174;27;20059;-71
2022/12/04 02:59:02;;;;;;;65.22;29.83;;;;;;;0.29;83.39;101682.00;5151837;27;20141;-71
2022/12/04 03:01:38;;;;;;;64.35;30.98;;;;;;;0.26;83.62;101687.09;5158777;27;20084;-70
2022/12/04 03:04:19;;;;;;;67.30;30.27;;;;;;;0.25;83.76;101689.69;5152927;27;20062;-71
2022/12/04 03:06:54;;;;;;;65.10;30.73;;;;;;;0.29;83.65;101704.50;5154341;27;20118;-71
2022/12/04 03:09:36;;;;;;;62.08;29.05;;;;;;;0.32;83.60;101704.53;5144909;27;20854;-71
2022/12/04 03:12:15;;;;;;;63.75;29.75;;;;;;;0.32;83.54;101699.34;5150329;27;20063;-70
2022/12/04 03:14:54;;;;;;;64.75;29.23;;;;;;;0.29;83.71;101694.13;5148717;27;20535;-68
2022/12/04 03:17:36;;;;;;;72.07;30.65;;;;;;;0.32;83.90;101694.16;5134491;27;20096;-67
2022/12/04 03:20:14;;;;;;;65.63;31.42;;;;;;;0.29;83.69;101692.38;5147484;27;20043;-68
2022/12/04 03:22:49;;;;;;;64.57;31.40;;;;;;;0.32;83.69;101686.38;5153803;27;20069;-68
2022/12/04 03:25:16;;;;;;;67.40;32.17;;;;;;;0.31;83.64;101684.63;5152944;27;20035;-68
2022/12/04 03:27:59;;;;;;;63.85;28.67;;;;;;;0.38;83.35;101685.66;5153497;27;20613;-68
2022/12/04 03:30:38;;;;;;;67.35;30.38;;;;;;;0.37;83.43;101681.31;5136353;27;20039;-67
2022/12/04 03:33:12;;;;;;;65.43;30.38;;;;;;;0.32;83.37;101676.00;5148855;27;20039;-68
2022/12/04 03:35:57;;;;;;;65.82;29.10;;;;;;;0.32;83.58;101683.78;5146393;27;20039;-68
2022/12/04 03:38:41;;;;;;;61.05;28.90;;;;;;;0.32;83.71;101680.34;5137453;27;20035;-68
2022/12/04 03:41:45;;;;;;;62.05;27.95;;;;;;;0.35;83.68;101680.44;5139138;27;20513;-68
2022/12/04 03:44:23;;;;;;;62.03;29.52;;;;;;;0.32;83.67;101675.16;5145778;27;20036;-68
2022/12/04 03:47:01;;;;;;;65.90;31.38;;;;;;;0.28;83.96;101676.78;5152776;27;20118;-68
2022/12/04 03:49:43;;;;;;;63.10;29.88;;;;;;;0.29;83.92;101674.22;5150597;27;20039;-68
2022/12/04 03:52:22;;;;;;;67.13;29.70;;;;;;;0.27;84.21;101675.91;5133577;27;20048;-68
2022/12/04 03:55:00;;;;;;;68.22;31.33;;;;;;;0.29;84.18;101681.16;5137477;27;20043;-70
2022/12/04 03:57:37;;;;;;;60.08;26.88;;;;;;;0.35;84.21;101675.25;5153643;27;20046;-70
2022/12/04 04:00:15;;;;;;;72.38;30.98;;;;;;;0.35;83.73;101680.44;5142231;27;20046;-70
2022/12/04 04:02:59;;;;;;;66.47;30.20;;;;;;;0.33;84.04;101684.69;5148960;27;20513;-70
2022/12/04 04:05:30;;;;;;;64.93;28.85;;;;;;;0.33;84.05;101687.28;5146767;27;20035;-70
2022/12/04 04:10:51;;;;;;;65.32;30.67;;;;;;;0.32;84.51;101683.78;5145358;27;20087;-69
2022/12/04 04:25:16;;;;;;;67.25;30.27;;;;;;;0.33;84.52;101684.69;5142894;27;20071;-69
2022/12/04 04:27:52;;;;;;;68.20;31.75;;;;;;;0.35;84.09;101673.50;5134697;27;20033;-68
2022/12/04 04:30:21;;;;;;;62.22;29.30;;;;;;;0.37;84.35;101676.13;5133011;27;20053;-68
2022/12/04 04:33:01;;;;;;;67.10;31.27;;;;;;;0.40;84.14;101679.72;5151260;27;20460;-69
2022/12/04 04:35:41;;;;;;;68.70;30.60;;;;;;;0.37;84.24;101671.84;5147890;27;20043;-70
2022/12/04 04:38:27;;;;;;;69.93;31.88;;;;;;;0.34;84.39;101670.88;5140819;27;20647;-69
2022/12/04 04:41:12;;;;;;;67.18;30.17;;;;;;;0.32;84.84;101675.16;5147275;27;20044;-68
2022/12/04 04:43:58;;;;;;;67.95;31.17;;;;;;;0.35;84.52;101676.09;5140400;27;20047;-68
2022/12/04 04:46:40;;;;;;;67.25;28.70;;;;;;;0.33;84.74;101679.50;5150567;27;20032;-68
2022/12/04 04:49:13;;;;;;;63.15;29.42;;;;;;;0.32;84.99;101683.78;5142916;27;20043;-68
2022/12/04 04:51:43;;;;;;;64.72;31.10;;;;;;;0.38;84.55;101685.66;5142421;27;20045;-68
2022/12/04 04:54:15;;;;;;;65.47;30.50;;;;;;;0.38;84.50;101681.38;5137017;27;20043;-68
2022/12/04 04:56:46;;;;;;;63.97;29.52;;;;;;;0.34;84.61;101676.94;5147310;27;20130;-69
2022/12/04 04:59:15;;;;;;;64.57;29.58;;;;;;;0.33;84.46;101675.19;5147886;27;20140;-70
2022/12/04 05:01:45;;;;;;;61.55;28.60;;;;;;;0.35;84.55;101681.28;5151465;27;20532;-70
2022/12/04 05:04:13;;;;;;;70.55;30.80;;;;;;;0.34;84.65;101678.66;5144630;27;20046;-69
2022/12/04 05:06:40;;;;;;;61.45;29.73;;;;;;;0.33;84.93;101679.50;5147671;27;20038;-69
2022/12/04 05:09:07;;;;;;;67.22;30.67;;;;;;;0.36;84.68;101680.44;5146148;27;20044;-69
2022/12/04 05:11:34;;;;;;;65.20;29.83;;;;;;;0.33;84.96;101677.78;5136702;27;20059;-69
2022/12/04 05:14:01;;;;;;;71.30;31.00;;;;;;;0.37;84.85;101683.91;5151310;27;20061;-70
2022/12/04 05:16:29;;;;;;;70.35;31.52;;;;;;;0.37;84.84;101673.53;5150630;27;20119;-69
2022/12/04 05:21:43;;;;;;;63.63;30.10;;;;;;;0.39;84.80;101674.47;5142064;27;20130;-69
2022/12/04 05:24:10;;;;;;;65.07;29.88;;;;;;;0.37;84.85;101683.91;5151909;27;20043;-71
2022/12/04 05:26:43;;;;;;;65.55;30.10;;;;;;;0.40;84.51;101682.31;5143217;27;20035;-71
2022/12/04 05:29:10;;;;;;;62.80;29.27;;;;;;;0.37;84.68;101683.91;5133796;27;20054;-70
2022/12/04 05:31:37;;;;;;;68.65;31.05;;;;;;;0.38;84.62;101675.28;5144400;27;20496;-69
2022/12/04 05:34:05;;;;;;;62.10;28.70;;;;;;;0.39;84.65;101675.34;5150170;27;20124;-69
2022/12/04 05:36:32;;;;;;;62.90;29.50;;;;;;;0.36;84.69;101679.56;5135167;27;20556;-69
2022/12/04 05:38:59;;;;;;;63.95;30.17;;;;;;;0.35;84.98;101680.44;5149996;27;20047;-69
2022/12/04 05:41:26;;;;;;;59.05;28.30;;;;;;;0.35;85.04;101680.44;5139779;27;20784;-69
2022/12/04 05:43:53;;;;;;;67.70;29.20;;;;;;;0.36;84.96;101672.66;5149412;27;20047;-69
2022/12/04 05:46:20;;;;;;;62.33;28.63;;;;;;;0.39;84.53;101664.09;5150822;27;20554;-70
2022/12/04 05:48:47;;;;;;;58.67;28.40;;;;;;;0.34;84.75;101669.16;5141818;27;20688;-69
2022/12/04 05:51:14;;;;;;;63.28;30.23;;;;;;;0.34;84.84;101670.88;5143459;27;20043;-69
2022/12/04 05:53:41;;;;;;;57.63;28.15;;;;;;;0.34;84.80;101669.16;5137133;27;20856;-68
2022/12/04 05:56:09;;;;;;;52.13;27.08;;;;;;;0.33;84.97;101670.00;5140813;27;20043;-69
2022/12/04 05:58:43;;;;;;;60.15;28.23;;;;;;;0.36;84.67;101672.66;5146680;27;20043;-69
2022/12/04 06:01:22;;;;;;;59.45;27.38;;;;;;;0.33;84.74;101680.38;5140366;27;20043;-69
2022/12/04 06:03:50;;;;;;;55.63;26.70;;;;;;;0.33;84.90;101675.19;5135039;27;20035;-69
2022/12/04 06:06:24;;;;;;;59.25;29.33;;;;;;;0.35;84.90;101670.06;5147512;27;20044;-69
2022/12/04 06:08:55;;;;;;;53.58;26.75;;;;;;;0.34;84.87;101658.78;5137835;27;20043;-69
2022/12/04 06:11:30;;;;;;;56.08;27.05;;;;;;;0.36;84.84;101667.47;5140407;27;20075;-69
2022/12/04 06:14:00;;;;;;;54.00;26.88;;;;;;;0.35;84.91;101657.94;5151902;27;20070;-69
2022/12/04 06:16:32;;;;;;;62.70;28.83;;;;;;;0.34;85.34;101663.09;5148499;27;20035;-69
2022/12/04 06:19:06;;;;;;;53.75;25.65;;;;;;;0.33;84.96;101653.56;5150651;27;20126;-69
2022/12/04 06:21:37;;;;;;;57.45;27.45;;;;;;;0.36;84.95;101654.50;5132013;27;20046;-69
2022/12/04 06:24:09;;;;;;;55.53;26.20;;;;;;;0.38;84.78;101654.53;5132014;27;20036;-70
2022/12/04 06:26:36;;;;;;;53.50;26.73;;;;;;;0.37;84.65;101652.78;5149147;27;20114;-69
2022/12/04 06:29:24;;;;;;;54.60;27.10;;;;;;;0.37;84.72;101660.56;5141557;27;20113;-69
2022/12/04 06:31:52;;;;;;;53.03;25.48;;;;;;;0.36;84.95;101658.81;5140503;27;20036;-68
2022/12/04 06:34:19;;;;;;;52.42;26.45;;;;;;;0.37;84.57;101669.25;5140191;27;20097;-68
2022/12/04 06:36:46;;;;;;;51.20;25.35;;;;;;;0.36;84.69;101669.19;5142261;27;20066;-68
2022/12/04 06:39:13;;;;;;;56.35;26.63;;;;;;;0.34;84.86;101665.69;5145335;27;20039;-68
2022/12/04 06:41:49;;;;;;;49.78;26.08;;;;;;;0.35;84.82;101667.47;5143463;27;20147;-68
2022/12/04 06:44:16;;;;;;;56.95;26.20;;;;;;;0.32;85.02;101669.97;5142399;27;20035;-68
2022/12/04 06:46:43;;;;;;;48.40;25.17;;;;;;;0.34;84.98;101670.88;5142371;27;20081;-69
2022/12/04 06:49:13;;;;;;;50.05;24.67;;;;;;;0.34;85.12;101670.88;5137435;27;20028;-70
2022/12/04 06:51:41;;;;;;;51.30;24.90;;;;;;;0.35;84.92;101670.91;5139048;27;20043;-71
2022/12/04 06:54:09;;;;;;;50.58;25.35;;;;;;;0.35;84.84;101678.69;5143788;27;20507;-71
2022/12/04 06:56:36;;;;;;;50.00;24.38;;;;;;;0.36;84.86;101679.56;5141325;27;20071;-70
2022/12/04 06:59:04;;;;;;;48.75;24.75;;;;;;;0.35;84.95;101685.63;5142903;27;20035;-69
2022/12/04 07:01:33;;;;;;;51.10;23.88;;;;;;;0.36;85.03;101683.03;5149767;27;20415;-69
2022/12/04 07:04:02;;;;;;;50.72;25.17;;;;;;;0.41;84.93;101680.56;5142217;27;20087;-69
2022/12/04 07:06:34;;;;;;;50.03;23.48;;;;;;;0.41;84.81;101683.16;5144182;27;20051;-69
2022/12/04 07:09:16;;;;;;;47.30;23.73;;;;;;;0.46;84.53;101689.31;5137203;27;20047;-69
2022/12/04 07:11:44;;;;;;;49.10;25.00;;;;;;;0.42;84.48;101679.72;5136476;27;20052;-70
2022/12/04 07:14:13;;;;;;;43.75;22.63;;;;;;;0.42;84.43;101685.78;5139249;27;20071;-70
2022/12/04 07:16:41;;;;;;;50.42;24.45;;;;;;;0.42;84.30;101695.31;5142017;27;20035;-68
2022/12/04 07:19:12;;;;;;;53.35;25.40;;;;;;;0.44;84.62;101696.22;5135329;27;20146;-69
2022/12/04 07:21:40;;;;;;;50.75;25.05;;;;;;;0.43;84.65;101697.91;5134657;27;20524;-68
2022/12/04 07:24:15;;;;;;;50.42;24.55;;;;;;;0.40;84.84;101694.38;5136376;27;20036;-68
2022/12/04 07:26:43;;;;;;;47.80;23.65;;;;;;;0.43;84.77;101692.72;5138650;27;20043;-68
2022/12/04 07:29:10;;;;;;;46.15;23.80;;;;;;;0.46;84.61;101702.31;5143240;27;20035;-66
2022/12/04 07:31:38;;;;;;;44.50;22.10;;;;;;;0.51;85.30;101703.31;5139156;27;20054;-67
2022/12/04 07:34:05;;;;;;;44.45;22.25;;;;;;;0.69;85.48;101713.28;5137402;27;20047;-67
2022/12/04 07:36:33;;;;;;;44.28;22.48;;;;;;;0.76;85.69;101706.53;5145240;27;20040;-67
2022/12/04 07:39:00;;;;;;;45.05;22.02;;;;;;;0.91;85.96;101703.41;5137101;27;20038;-68
2022/12/04 07:41:27;;;;;;;46.58;22.63;;;;;;;1.10;86.61;101702.09;5135019;27;20043;-68
2022/12/04 07:43:54;;;;;;;47.83;23.50;;;;;;;1.36;85.93;101701.81;5140907;27;20043;-67
2022/12/04 07:46:26;;;;;;;41.22;22.17;;;;;;;1.44;84.54;101708.03;5139247;27;20035;-65
2022/12/04 07:48:58;;;;;;;42.75;21.50;;;;;;;1.46;84.25;101701.16;5137208;27;20047;-67
2022/12/04 07:51:28;;;;;;;43.05;21.27;;;;;;;1.51;83.83;101696.91;5139885;27;20476;-67
2022/12/04 07:53:58;;;;;;;41.35;21.58;;;;;;;1.55;83.75;101696.16;5136304;27;20047;-67
2022/12/04 07:56:32;;;;;;;46.65;21.25;;;;;;;1.57;83.12;101700.50;5139715;27;20031;-67
2022/12/04 07:59:00;;;;;;;41.65;22.08;;;;;;;1.54;82.75;101699.59;5135134;27;20047;-67
2022/12/04 08:01:27;;;;;;;40.83;20.58;;;;;;;1.51;81.61;101703.84;5147396;27;20090;-66
2022/12/04 08:03:57;;;;;;;43.33;23.13;;;;;;;1.44;81.93;101708.03;5141911;27;20032;-67
2022/12/04 08:06:28;;;;;;;41.50;21.55;;;;;;;1.39;81.75;101715.75;5140474;27;20169;-68
2022/12/04 08:08:56;;;;;;;39.17;20.50;;;;;;;1.38;81.88;101710.50;5140527;27;20741;-68
2022/12/04 08:11:26;;;;;;;39.90;20.48;;;;;;;1.30;81.77;101715.53;5136436;27;20063;-68
2022/12/04 08:13:59;;;;;;;37.50;20.17;;;;;;;1.30;82.06;101715.53;5143232;27;20035;-69
2022/12/04 08:16:29;;;;;;;36.47;20.17;;;;;;;1.33;81.87;101719.91;5142775;27;20527;-69
2022/12/04 08:18:58;;;;;;;39.75;20.92;;;;;;;1.36;81.47;101725.19;5147764;27;20542;-69
2022/12/04 08:21:28;;;;;;;39.25;21.10;;;;;;;1.47;81.31;101728.91;5133177;27;20055;-69
2022/12/04 08:23:58;;;;;;;36.58;20.48;;;;;;;1.49;81.20;101728.94;5139034;27;20071;-69
2022/12/04 08:26:28;;;;;;;38.63;22.38;;;;;;;1.58;81.55;101726.53;5148081;27;20036;-69
2022/12/04 08:28:57;;;;;;;51.25;29.75;;;;;;;1.69;80.66;101722.44;5149766;27;20039;-69
2022/12/04 08:31:27;;;;;;;34.47;21.27;;;;;;;1.68;79.78;101718.06;5145999;27;20595;-69
2022/12/04 08:33:57;;;;;;;71.45;46.55;;;;;;;1.54;79.56;101729.88;5137961;27;20051;-68
2022/12/04 08:36:25;;;;;;;48.97;28.23;;;;;;;1.39;79.59;101726.13;5148794;27;20910;-68
2022/12/04 08:38:53;;;;;;;36.17;20.50;;;;;;;1.30;79.95;101727.63;5147918;27;20541;-68
2022/12/04 08:41:24;;;;;;;44.75;26.17;;;;;;;1.19;80.51;101722.22;5148610;27;20032;-67
2022/12/04 08:43:54;;;;;;;60.42;38.42;;;;;;;1.15;80.46;101710.00;5136179;27;20101;-67
2022/12/04 08:46:23;;;;;;;44.63;29.13;;;;;;;1.14;80.53;101701.34;5149416;27;20041;-68
2022/12/04 08:48:52;;;;;;;36.00;21.70;;;;;;;1.06;81.04;101706.34;5150871;27;20038;-66
2022/12/04 08:51:24;;;;;;;36.50;22.15;;;;;;;1.08;80.70;101701.19;5148753;27;20793;-66
2022/12/04 08:53:57;;;;;;;49.45;31.00;;;;;;;1.02;80.80;101714.03;5144183;27;20492;-66
2022/12/04 08:56:27;;;;;;;35.22;21.63;;;;;;;1.01;80.84;101715.78;5140391;27;20039;-66
2022/12/04 08:58:56;;;;;;;33.85;17.10;;;;;;;1.00;80.71;101718.31;5138925;27;20103;-67
2022/12/04 09:01:24;;;;;;;32.13;16.30;;;;;;;0.97;80.70;101711.34;5136306;27;20157;-65
2022/12/04 09:03:52;;;;;;;31.40;17.13;;;;;;;0.95;80.80;101710.41;5144893;27;20032;-67
2022/12/04 09:06:20;;;;;;;31.67;17.17;;;;;;;0.92;80.91;101713.81;5141407;27;20055;-67
2022/12/04 09:08:53;;;;;;;30.60;17.00;;;;;;;0.92;80.76;101708.63;5136115;27;20038;-67
2022/12/04 09:11:24;;;;;;;32.67;18.38;;;;;;;0.90;81.08;101718.09;5140357;27;20162;-66
2022/12/04 09:13:53;;;;;;;33.97;18.30;;;;;;;0.89;81.25;101718.06;5136757;27;20555;-67
2022/12/04 09:16:22;;;;;;;35.83;18.75;;;;;;;0.88;81.03;101711.13;5142255;27;20036;-68
2022/12/04 09:18:50;;;;;;;33.85;17.80;;;;;;;0.83;81.39;101721.41;5138813;27;20043;-67
2022/12/04 09:21:20;;;;;;;33.22;17.40;;;;;;;0.87;81.58;101717.16;5142114;27;20039;-67
2022/12/04 09:23:48;;;;;;;34.42;18.38;;;;;;;0.86;81.30;101720.59;5136651;27;20043;-68
2022/12/04 09:26:23;;;;;;;35.58;18.33;;;;;;;0.85;81.51;101724.91;5142395;27;20042;-68
2022/12/04 09:28:52;;;;;;;32.05;17.17;;;;;;;0.83;81.81;101721.41;5138766;27;20051;-68
2022/12/04 09:31:21;;;;;;;32.47;17.70;;;;;;;0.83;81.79;101726.59;5134179;27;20035;-68
2022/12/04 09:33:49;;;;;;;31.13;17.02;;;;;;;0.89;81.71;101723.25;5132667;27;20532;-68
2022/12/04 09:36:16;;;;;;;29.92;17.10;;;;;;;0.85;81.81;101721.41;5132086;27;20481;-67
2022/12/04 09:38:47;;;;;;;32.80;18.23;;;;;;;0.88;81.88;101721.50;5131397;27;20039;-67
2022/12/04 09:41:30;;;;;;;27.75;15.65;;;;;;;0.93;81.71;101719.88;5131947;27;20100;-66
2022/12/04 09:44:09;;;;;;;38.10;21.08;;;;;;;0.90;81.25;101715.50;5134247;27;20036;-67
2022/12/04 09:47:03;;;;;;;31.80;18.25;;;;;;;0.87;81.32;101722.34;5152325;27;20035;-67
2022/12/04 09:49:41;;;;;;;34.25;18.17;;;;;;;0.85;81.75;101718.81;5152224;27;20039;-66
2022/12/04 09:52:25;;;;;;;30.63;17.42;;;;;;;0.85;82.00;101717.13;5150669;27;20065;-67
2022/12/04 09:54:54;;;;;;;34.17;18.63;;;;;;;0.87;82.02;101722.34;5140602;27;20039;-66
2022/12/04 09:57:36;;;;;;;32.90;18.27;;;;;;;0.87;81.78;101715.41;5132152;27;20036;-67
2022/12/04 10:00:06;;;;;;;33.25;17.85;;;;;;;0.86;82.30;101718.88;5132019;27;20039;-66
2022/12/04 10:02:40;;;;;;;33.08;18.80;;;;;;;0.85;82.32;101706.75;5130896;27;20036;-69
2022/12/04 10:05:18;;;;;;;29.15;16.88;;;;;;;0.88;82.46;101718.91;5132080;27;20155;-67
2022/12/04 10:08:19;;;;;;;33.67;18.67;;;;;;;0.92;82.39;101719.00;5132782;27;20085;-67
2022/12/04 10:11:29;;;;;;;30.83;17.55;;;;;;;0.93;82.12;101715.59;5144072;27;20059;-67
2022/12/04 10:14:25;;;;;;;33.88;17.50;;;;;;;0.99;81.81;101716.56;5134707;27;20046;-67
2022/12/04 10:17:11;;;;;;;30.90;17.23;;;;;;;0.92;81.99;101713.81;5156238;27;20491;-67
2022/12/04 10:20:20;;;;;;;32.58;17.45;;;;;;;0.95;81.99;101709.56;5156706;27;20031;-67
2022/12/04 10:23:16;;;;;;;33.13;17.52;;;;;;;0.95;81.85;101719.94;5156167;27;20032;-67
2022/12/04 10:25:43;;;;;;;31.80;17.20;;;;;;;0.91;81.75;101716.41;5135498;27;20066;-67
2022/12/04 10:28:35;;;;;;;29.20;17.52;;;;;;;0.92;82.18;101706.03;5135914;27;20044;-67
2022/12/04 10:31:09;;;;;;;32.05;17.77;;;;;;;0.92;82.27;101708.63;5136117;27;20055;-68
2022/12/04 10:34:15;;;;;;;59.90;31.08;;;;;;;0.97;82.05;101706.13;5135344;27;20040;-69
2022/12/04 10:36:52;;;;;;;30.35;17.25;;;;;;;1.00;82.17;101707.91;5132900;27;20047;-68
2022/12/04 10:39:33;;;;;;;29.15;17.10;;;;;;;1.03;82.01;101710.59;5147349;27;20035;-68
2022/12/04 10:42:12;;;;;;;27.55;16.23;;;;;;;1.05;81.57;101709.78;5155918;27;20209;-69
2022/12/04 10:44:39;;;;;;;29.35;17.50;;;;;;;1.06;81.62;101715.88;5156371;27;20070;-69
2022/12/04 10:47:12;;;;;;;37.63;22.65;;;;;;;1.04;81.81;101714.94;5156436;27;20464;-69
2022/12/04 10:49:39;;;;;;;30.58;18.25;;;;;;;1.05;82.02;101709.78;5154664;27;20105;-69
2022/12/04 10:52:11;;;;;;;28.92;15.57;;;;;;;1.07;81.90;101723.69;5151709;27;20062;-69
2022/12/04 10:54:57;;;;;;;30.52;17.55;;;;;;;1.08;81.86;101714.16;5156472;27;20039;-69
2022/12/04 10:57:42;;;;;;;25.67;15.68;;;;;;;1.10;81.92;101720.28;5156169;27;20039;-69
2022/12/04 11:00:23;;;;;;;;;;;;;;;1.10;81.71;101715.09;5156634;27;20039;-69
2022/12/04 11:02:52;;;;;;;27.48;16.70;;;;;;;1.09;81.82;101715.91;5154384;27;19957;-69
2022/12/04 11:05:42;;;;;;;28.02;16.73;;;;;;;1.13;81.64;101703.88;5154600;27;20100;-68
2022/12/04 11:08:25;;;;;;;29.90;16.88;;;;;;;1.09;81.88;101702.94;5150407;27;20050;-69
2022/12/04 11:11:01;;;;;;;29.42;16.55;;;;;;;1.12;81.78;101691.75;5134956;27;20543;-69
2022/12/04 11:13:28;;;;;;;26.48;16.23;;;;;;;1.16;81.51;101693.56;5140721;27;20055;-68
2022/12/04 11:15:58;;;;;;;28.08;16.85;;;;;;;1.16;81.90;101683.16;5155219;27;20043;-68
2022/12/04 11:18:30;;;;;;;27.23;16.60;;;;;;;1.18;81.61;101682.34;5155847;27;20046;-69
2022/12/04 11:21:12;;;;;;;29.83;16.73;;;;;;;1.19;81.46;101681.50;5155571;27;20049;-68
2022/12/04 11:23:50;;;;;;;29.55;16.08;;;;;;;1.20;81.62;101683.28;5154684;27;20035;-68
2022/12/04 11:26:40;;;;;;;26.90;15.18;;;;;;;1.24;81.51;101685.09;5154616;27;20848;-69
2022/12/04 11:29:16;;;;;;;25.27;15.18;;;;;;;1.26;81.22;101673.88;5144163;27;20047;-68
2022/12/04 11:31:54;;;;;;;25.67;16.13;;;;;;;1.31;81.07;101667.03;5134367;27;20040;-68
2022/12/04 11:34:33;;;;;;;26.00;15.70;;;;;;;1.31;81.04;101673.13;5134131;27;20043;-68
2022/12/04 11:37:01;;;;;;;26.70;15.77;;;;;;;1.26;81.32;101672.13;5134543;27;20468;-68
2022/12/04 11:39:40;;;;;;;26.63;16.73;;;;;;;1.33;81.27;101667.97;5134110;27;20078;-68
2022/12/04 11:42:22;;;;;;;26.75;16.65;;;;;;;1.36;81.07;101668.91;5134507;27;20048;-68
2022/12/04 11:45:19;;;;;;;26.48;16.92;;;;;;;1.34;81.11;101659.31;5134552;27;20039;-68
2022/12/04 11:47:59;;;;;;;25.40;15.38;;;;;;;1.35;81.37;101655.88;5134289;27;20427;-68
2022/12/04 11:50:43;;;;;;;27.60;16.50;;;;;;;1.37;81.21;101655.06;5133960;27;20128;-68
2022/12/04 11:53:41;;;;;;;26.30;16.10;;;;;;;1.39;80.83;101655.09;5134236;27;20047;-68
2022/12/04 11:56:44;;;;;;;27.63;16.17;;;;;;;1.39;80.62;101649.88;5134349;27;20039;-68
2022/12/04 11:59:37;;;;;;;26.23;16.00;;;;;;;1.38;80.91;101642.94;5153176;27;20061;-68
2022/12/04 12:02:50;;;;;;;26.75;16.15;;;;;;;1.36;81.41;101634.25;5154554;27;20036;-68
2022/12/04 12:06:11;;;;;;;27.42;16.58;;;;;;;1.42;81.21;101626.56;5144960;27;20074;-67
2022/12/04 12:09:08;;;;;;;26.27;15.05;;;;;;;1.44;80.86;101630.09;5146850;27;20041;-67